Time;durP1;ratioP1;P1;durP2;ratioP2;P2;SDS_P1;SDS_P2;PMS_P1;PMS_P2;Temp;Humidity;BMP_temperature;BMP_pressure;BME280_temperature;BME280_humidity;BME280_pressure;Samples;Min_cycle;Max_cycle;Signal;HPM_P1;HPM_P2
2022/05/16 00:00:28;;;;;;;4.42;1.45;;;;;;;12.33;52.91;100203.99;1753027;80;20996;-70
2022/05/16 00:02:56;;;;;;;5.75;1.52;;;;;;;12.28;53.01;100206.72;1785620;79;21570;-70
2022/05/16 00:05:24;;;;;;;3.30;1.45;;;;;;;12.24;53.28;100203.48;1760838;79;21848;-76
2022/05/16 00:07:51;;;;;;;8.50;1.52;;;;;;;12.20;53.52;100207.88;1793271;77;20972;-70
2022/05/16 00:10:18;;;;;;;6.67;1.50;;;;;;;12.16;54.00;100206.46;1790531;79;21032;-70
2022/05/16 00:12:46;;;;;;;4.78;1.60;;;;;;;12.14;54.14;100208.41;1782681;79;20980;-70
2022/05/16 00:15:17;;;;;;;2.10;1.20;;;;;;;12.11;54.23;100216.64;1812602;79;21503;-70
2022/05/16 00:17:45;;;;;;;4.42;1.27;;;;;;;12.09;54.25;100214.62;1783769;79;21853;-70
2022/05/16 00:20:14;;;;;;;3.42;1.40;;;;;;;12.08;54.44;100216.92;1801173;79;20999;-70
2022/05/16 00:22:41;;;;;;;5.28;1.50;;;;;;;12.04;54.51;100219.81;1792172;79;20955;-72
2022/05/16 00:25:10;;;;;;;3.02;1.40;;;;;;;12.02;54.79;100212.50;1800389;79;21105;-70
2022/05/16 00:27:38;;;;;;;4.45;1.30;;;;;;;11.98;54.93;100215.56;1750819;80;21041;-70
2022/05/16 00:30:09;;;;;;;4.22;1.47;;;;;;;11.96;54.94;100214.35;1792515;79;22532;-72
2022/05/16 00:32:36;;;;;;;4.53;1.67;;;;;;;11.94;55.01;100212.33;1811089;79;20989;-74
2022/05/16 00:35:05;;;;;;;3.98;1.60;;;;;;;11.91;55.15;100223.69;1789000;77;21431;-69
2022/05/16 00:37:32;;;;;;;4.58;1.50;;;;;;;11.87;55.34;100219.61;1800135;78;20961;-69
2022/05/16 00:39:59;;;;;;;2.98;1.47;;;;;;;11.82;55.47;100222.67;1754989;79;21000;-69
2022/05/16 00:42:26;;;;;;;2.90;1.45;;;;;;;11.79;55.54;100220.76;1785689;79;21620;-69
2022/05/16 00:44:53;;;;;;;4.83;1.50;;;;;;;11.74;55.81;100218.49;1810360;79;20969;-69
2022/05/16 00:47:20;;;;;;;3.77;1.40;;;;;;;11.68;55.91;100229.14;1792464;77;20945;-70
2022/05/16 00:49:48;;;;;;;2.37;1.15;;;;;;;11.65;56.02;100227.23;1787091;79;20981;-69
2022/05/16 00:52:27;;;;;;;4.42;1.50;;;;;;;11.63;56.14;100233.14;1798714;77;21511;-69
2022/05/16 00:54:59;;;;;;;2.77;1.35;;;;;;;11.58;56.27;100231.36;1792044;77;21809;-69
2022/05/16 00:57:35;;;;;;;9.40;1.85;;;;;;;11.54;56.44;100236.09;1788347;77;21035;-69
2022/05/16 01:00:19;;;;;;;3.67;1.40;;;;;;;11.51;56.54;100236.84;1792530;79;21399;-69
2022/05/16 01:05:35;;;;;;;3.65;1.50;;;;;;;11.40;57.02;100241.24;1756386;79;20194;-69
2022/05/16 01:08:06;;;;;;;3.80;1.40;;;;;;;11.34;57.11;100235.14;1799806;79;22164;-69
2022/05/16 01:10:34;;;;;;;3.98;1.50;;;;;;;11.34;57.16;100239.11;1784017;79;21395;-69
2022/05/16 01:13:03;;;;;;;3.60;1.57;;;;;;;11.29;57.33;100241.77;1787149;79;20992;-70
2022/05/16 01:15:38;;;;;;;3.67;1.40;;;;;;;11.26;57.38;100240.72;1798691;78;20948;-69
2022/05/16 01:18:06;;;;;;;6.58;1.50;;;;;;;11.21;57.50;100235.00;1780464;79;21018;-69
2022/05/16 01:21:16;;;;;;;3.20;1.50;;;;;;;11.18;57.80;100240.03;1781826;79;21857;-68
2022/05/16 01:23:53;;;;;;;4.17;1.50;;;;;;;11.12;57.85;100237.92;1781009;79;20979;-69
2022/05/16 01:26:24;;;;;;;4.67;1.70;;;;;;;11.03;58.09;100241.34;1783869;79;21020;-70
2022/05/16 01:28:55;;;;;;;4.45;1.32;;;;;;;10.93;58.37;100239.11;1746451;80;21083;-71
2022/05/16 01:31:22;;;;;;;2.77;1.40;;;;;;;10.85;58.60;100241.05;1778561;79;20956;-69
2022/05/16 01:33:50;;;;;;;4.08;1.50;;;;;;;10.82;58.82;100240.00;1788217;79;21933;-68
2022/05/16 01:36:17;;;;;;;3.45;1.40;;;;;;;10.79;59.07;100247.67;1756114;80;20973;-68
2022/05/16 01:38:44;;;;;;;5.30;1.52;;;;;;;10.77;59.31;100243.00;1781792;79;21046;-69
2022/05/16 01:41:18;;;;;;;3.83;1.50;;;;;;;10.73;59.41;100240.75;1781823;79;20995;-69
2022/05/16 01:43:48;;;;;;;4.87;1.62;;;;;;;10.66;59.53;100235.12;1781271;79;21062;-68
2022/05/16 01:46:19;;;;;;;3.75;1.15;;;;;;;10.65;59.62;100243.18;1780625;79;22484;-70
2022/05/16 01:48:46;;;;;;;3.42;1.45;;;;;;;10.63;59.80;100240.67;1808620;79;20958;-71
2022/05/16 01:51:13;;;;;;;5.15;1.20;;;;;;;10.60;59.96;100242.22;1791888;79;20944;-71
2022/05/16 01:53:42;;;;;;;2.62;1.20;;;;;;;10.59;60.05;100238.73;1781933;79;20973;-71
2022/05/16 01:56:10;;;;;;;2.10;1.30;;;;;;;10.56;60.04;100239.00;1780628;79;21438;-71
2022/05/16 01:58:38;;;;;;;5.70;1.57;;;;;;;10.53;60.29;100247.18;1793114;79;21716;-70
2022/05/16 02:01:05;;;;;;;4.97;1.35;;;;;;;10.53;60.40;100248.50;1800471;77;21020;-70
2022/05/16 02:03:32;;;;;;;2.42;1.37;;;;;;;10.53;60.71;100253.78;1763533;79;21518;-69
2022/05/16 02:05:59;;;;;;;5.00;1.67;;;;;;;10.56;60.67;100252.20;1802660;79;20981;-70
2022/05/16 02:08:28;;;;;;;3.60;1.80;;;;;;;10.54;60.66;100251.50;1807934;79;20969;-69
2022/05/16 02:10:57;;;;;;;6.35;1.60;;;;;;;10.54;60.73;100254.63;1769720;79;20993;-69
2022/05/16 02:13:24;;;;;;;5.08;1.60;;;;;;;10.54;60.80;100262.06;1761009;79;21328;-69
2022/05/16 02:15:51;;;;;;;4.03;1.50;;;;;;;10.54;60.86;100263.38;1790328;79;20948;-69
2022/05/16 02:18:18;;;;;;;3.37;1.60;;;;;;;10.55;60.88;100265.53;1809732;79;20970;-69
2022/05/16 02:20:46;;;;;;;3.83;1.70;;;;;;;10.55;61.02;100264.22;1768227;80;21017;-69
2022/05/16 02:25:59;;;;;;;5.85;1.60;;;;;;;10.55;61.18;100261.58;1785676;79;20950;-69
2022/05/16 02:28:26;;;;;;;4.17;1.60;;;;;;;10.55;61.26;100261.58;1798196;79;20987;-69
2022/05/16 02:30:54;;;;;;;3.85;1.50;;;;;;;10.55;61.31;100261.09;1802864;78;21510;-69
2022/05/16 02:33:21;;;;;;;3.60;1.50;;;;;;;10.53;61.31;100263.03;1789878;79;21642;-68
2022/05/16 02:35:48;;;;;;;3.20;1.55;;;;;;;10.50;61.30;100263.25;1797993;79;21738;-69
2022/05/16 02:38:17;;;;;;;3.85;1.67;;;;;;;10.47;61.33;100263.99;1799098;79;21703;-68
2022/05/16 02:40:44;;;;;;;2.87;1.45;;;;;;;10.43;61.47;100262.58;1795486;79;21354;-68
2022/05/16 02:43:11;;;;;;;5.20;1.72;;;;;;;10.39;61.51;100261.96;1784223;79;20965;-68
2022/05/16 02:45:40;;;;;;;4.30;1.62;;;;;;;10.36;61.52;100264.86;1797290;79;21517;-68
2022/05/16 02:48:07;;;;;;;5.05;1.65;;;;;;;10.38;61.67;100266.05;1768388;79;21800;-68
2022/05/16 02:50:34;;;;;;;4.55;1.67;;;;;;;10.40;61.73;100269.40;1779135;80;20925;-69
2022/05/16 02:53:01;;;;;;;3.85;1.77;;;;;;;10.42;61.77;100271.43;1777244;80;21467;-70
2022/05/16 02:55:31;;;;;;;4.67;1.72;;;;;;;10.41;61.79;100273.72;1791265;79;20989;-69
2022/05/16 02:57:57;;;;;;;5.22;2.00;;;;;;;10.45;61.79;100277.80;1779215;79;21044;-68
2022/05/16 03:00:24;;;;;;;4.65;1.75;;;;;;;10.49;61.74;100273.46;1769852;79;21821;-69
2022/05/16 03:02:51;;;;;;;3.67;1.80;;;;;;;10.52;61.67;100279.00;1789533;79;21499;-70
2022/05/16 03:05:18;;;;;;;4.47;2.00;;;;;;;10.53;61.64;100276.71;1784764;79;21016;-69
2022/05/16 03:07:45;;;;;;;8.00;1.95;;;;;;;10.54;61.72;100280.55;1785151;79;21007;-69
2022/05/16 03:10:15;;;;;;;6.40;1.90;;;;;;;10.57;61.69;100283.41;1778660;79;20956;-69
2022/05/16 03:12:44;;;;;;;5.50;2.00;;;;;;;10.59;61.71;100280.99;1777984;79;21888;-70
2022/05/16 03:15:13;;;;;;;6.28;1.75;;;;;;;10.63;61.73;100290.85;1781949;79;21062;-69
2022/05/16 03:17:40;;;;;;;4.50;2.20;;;;;;;10.66;61.75;100291.91;1791699;79;20979;-68
2022/05/16 03:20:11;;;;;;;6.00;2.30;;;;;;;10.71;61.75;100290.20;1804639;79;20965;-68
2022/05/16 03:22:38;;;;;;;5.40;2.02;;;;;;;10.75;61.75;100291.17;1786521;79;21113;-69
2022/05/16 03:25:06;;;;;;;4.83;2.02;;;;;;;10.80;61.75;100286.81;1772813;79;21802;-69
2022/05/16 03:27:34;;;;;;;6.67;2.20;;;;;;;10.83;61.77;100283.46;1778794;80;21040;-69
2022/05/16 03:30:01;;;;;;;5.03;1.85;;;;;;;10.88;61.77;100289.19;1790235;79;21411;-68
2022/05/16 03:32:29;;;;;;;5.25;2.10;;;;;;;10.94;61.73;100290.50;1797146;79;20996;-69
2022/05/16 03:34:55;;;;;;;5.95;2.10;;;;;;;10.97;61.68;100282.31;1804296;79;21070;-69
2022/05/16 03:37:22;;;;;;;4.50;2.10;;;;;;;11.03;61.56;100291.55;1795726;79;22438;-69
2022/05/16 03:42:36;;;;;;;5.30;2.25;;;;;;;11.12;61.54;100299.56;1798383;78;22372;-69
2022/05/16 03:45:04;;;;;;;6.05;2.25;;;;;;;11.16;61.42;100302.30;1795777;79;20984;-68
2022/05/16 03:47:32;;;;;;;3.67;1.85;;;;;;;11.21;61.36;100306.38;1786968;79;20987;-69
2022/05/16 03:49:59;;;;;;;9.13;2.15;;;;;;;11.25;61.28;100305.98;1786842;79;21462;-69
2022/05/16 03:52:26;;;;;;;4.35;2.10;;;;;;;11.29;61.23;100304.78;1784058;79;21051;-70
2022/05/16 03:54:54;;;;;;;6.22;2.22;;;;;;;11.34;61.11;100304.38;1796211;77;21390;-74
2022/05/16 03:57:22;;;;;;;4.72;2.33;;;;;;;11.41;61.03;100292.33;1795401;79;21003;-70
2022/05/16 03:59:49;;;;;;;7.30;2.00;;;;;;;11.48;60.96;100298.75;1797040;79;20967;-69
2022/05/16 04:02:16;;;;;;;6.70;2.25;;;;;;;11.54;60.83;100294.77;1800353;79;21797;-70
2022/05/16 04:04:44;;;;;;;7.87;2.20;;;;;;;11.60;60.71;100292.94;1797675;79;20964;-69
2022/05/16 04:07:11;;;;;;;4.37;2.15;;;;;;;11.66;60.58;100294.55;1798676;79;21121;-68
2022/05/16 04:09:39;;;;;;;5.40;2.12;;;;;;;11.73;60.38;100298.84;1794394;78;20995;-71
2022/05/16 04:12:06;;;;;;;4.92;2.20;;;;;;;11.80;60.37;100296.55;1752268;80;21123;-69
2022/05/16 04:14:35;;;;;;;6.08;2.27;;;;;;;11.87;60.12;100301.66;1786345;79;21808;-68
2022/05/16 04:17:02;;;;;;;7.10;1.98;;;;;;;11.94;60.11;100304.97;1792973;79;21048;-68
2022/05/16 04:19:29;;;;;;;3.95;2.00;;;;;;;12.01;59.80;100303.48;1781651;79;20985;-69
2022/05/16 04:21:56;;;;;;;4.90;1.90;;;;;;;12.09;59.75;100303.31;1767792;79;20981;-69
2022/05/16 04:24:23;;;;;;;3.47;1.82;;;;;;;12.17;59.57;100311.43;1786512;77;21047;-69
2022/05/16 04:26:52;;;;;;;5.33;2.12;;;;;;;12.24;59.14;100312.06;1751897;80;23279;-68
2022/05/16 04:29:18;;;;;;;3.25;1.72;;;;;;;12.32;59.04;100306.94;1784496;79;20964;-70
2022/05/16 04:31:46;;;;;;;8.10;2.30;;;;;;;12.39;58.61;100309.05;1802501;79;21496;-71
2022/05/16 04:34:13;;;;;;;4.10;1.80;;;;;;;12.47;58.35;100318.01;1753979;79;21044;-68
2022/05/16 04:36:40;;;;;;;6.87;1.90;;;;;;;12.52;57.39;100315.77;1806859;77;21387;-73
2022/05/16 04:39:07;;;;;;;7.37;2.02;;;;;;;12.60;57.32;100311.96;1804248;77;22196;-69
2022/05/16 04:44:21;;;;;;;5.12;2.20;;;;;;;12.77;56.88;100313.61;1789755;79;21051;-77
2022/05/16 04:46:48;;;;;;;7.92;2.17;;;;;;;12.84;56.34;100317.39;1790680;79;20996;-69
2022/05/16 04:49:15;;;;;;;4.12;2.00;;;;;;;12.90;56.23;100311.03;1796581;79;20977;-69
2022/05/16 04:51:42;;;;;;;6.20;1.87;;;;;;;13.00;56.33;100307.55;1783837;79;21801;-69
2022/05/16 04:54:09;;;;;;;5.37;1.92;;;;;;;13.04;55.47;100304.50;1786028;79;20901;-70
2022/05/16 04:56:37;;;;;;;4.60;2.00;;;;;;;13.10;55.38;100318.50;1802586;79;20926;-69
2022/05/16 04:59:04;;;;;;;3.77;1.87;;;;;;;13.16;55.01;100311.33;1783871;79;20840;-71
2022/05/16 05:01:32;;;;;;;6.15;1.92;;;;;;;13.22;54.28;100313.95;1796700;79;20971;-71
2022/05/16 05:03:59;;;;;;;4.35;1.70;;;;;;;13.30;54.39;100313.23;1787187;79;22481;-72
2022/05/16 05:06:26;;;;;;;4.30;1.67;;;;;;;13.35;54.20;100317.64;1790960;79;21049;-70
2022/05/16 05:08:53;;;;;;;3.90;1.50;;;;;;;13.42;54.02;100317.42;1798678;79;21151;-69
2022/05/16 05:16:52;;;;;;;3.20;1.60;;;;;;;13.64;53.02;100319.76;1812726;79;21844;-69
2022/05/16 05:19:19;;;;;;;5.05;1.90;;;;;;;13.73;52.84;100322.05;1810166;79;20853;-67
2022/05/16 05:21:46;;;;;;;3.75;1.70;;;;;;;13.81;52.58;100325.32;1787406;78;21070;-68
2022/05/16 05:24:13;;;;;;;4.05;1.70;;;;;;;13.89;52.05;100322.75;1787638;77;21035;-69
2022/05/16 05:26:42;;;;;;;5.92;1.80;;;;;;;13.97;51.68;100319.73;1805059;79;21023;-70
2022/05/16 05:29:10;;;;;;;3.02;1.60;;;;;;;14.08;51.24;100329.33;1792134;79;22324;-69
2022/05/16 05:31:39;;;;;;;3.27;1.40;;;;;;;14.19;49.89;100328.34;1790487;79;21059;-70
2022/05/16 05:34:08;;;;;;;3.55;1.40;;;;;;;14.28;49.30;100328.76;1792780;79;22046;-70
2022/05/16 05:36:35;;;;;;;4.62;1.65;;;;;;;14.36;48.44;100325.37;1755384;79;21445;-68
2022/05/16 05:39:03;;;;;;;4.85;1.37;;;;;;;14.43;48.23;100332.62;1786015;79;21003;-69
2022/05/16 05:41:30;;;;;;;4.45;1.40;;;;;;;14.51;47.84;100332.75;1773602;79;21761;-69
2022/05/16 05:43:57;;;;;;;3.27;1.40;;;;;;;14.58;47.65;100331.68;1756658;80;21460;-70
2022/05/16 05:46:26;;;;;;;3.17;1.37;;;;;;;14.65;47.29;100342.53;1783477;77;21005;-69
2022/05/16 05:48:53;;;;;;;3.65;1.37;;;;;;;14.72;46.41;100337.80;1791193;79;21072;-71
2022/05/16 05:51:20;;;;;;;2.37;1.00;;;;;;;14.77;44.58;100338.21;1796108;78;21435;-69
2022/05/16 05:53:48;;;;;;;2.15;0.95;;;;;;;14.82;44.36;100337.25;1775352;79;21963;-70
2022/05/16 05:56:16;;;;;;;1.75;0.90;;;;;;;14.90;44.21;100332.52;1776362;79;21007;-70
2022/05/16 05:58:43;;;;;;;2.77;0.90;;;;;;;15.00;42.88;100336.44;1774505;79;21055;-71
2022/05/16 06:01:10;;;;;;;2.17;0.90;;;;;;;15.08;42.27;100335.19;1768830;79;21020;-70
2022/05/16 06:03:39;;;;;;;5.45;1.20;;;;;;;15.15;42.65;100345.08;1763224;80;21043;-71
2022/05/16 06:06:06;;;;;;;3.08;1.12;;;;;;;15.18;43.17;100330.13;1780699;79;21941;-70
2022/05/16 06:08:33;;;;;;;2.47;1.00;;;;;;;15.22;42.99;100332.48;1779542;80;21040;-72
2022/05/16 06:11:01;;;;;;;3.00;1.15;;;;;;;15.23;43.71;100325.67;1793454;79;21035;-70
2022/05/16 06:13:29;;;;;;;2.65;1.20;;;;;;;15.32;43.31;100326.58;1765097;79;21048;-73
2022/05/16 06:15:56;;;;;;;5.00;1.00;;;;;;;15.40;43.24;100330.15;1765638;79;21014;-70
2022/05/16 06:18:23;;;;;;;3.35;1.02;;;;;;;15.41;43.64;100322.50;1747514;80;22295;-71
2022/05/16 06:20:50;;;;;;;1.55;0.80;;;;;;;15.46;43.97;100333.53;1780788;79;21521;-71
2022/05/16 06:23:18;;;;;;;1.45;0.62;;;;;;;15.61;41.66;100335.66;1788720;79;21015;-73
2022/05/16 06:25:44;;;;;;;1.35;0.70;;;;;;;15.73;40.97;100327.78;1757118;80;21004;-79
2022/05/16 06:28:18;;;;;;;2.27;0.98;;;;;;;15.83;40.51;100330.34;1787154;77;21012;-79
2022/05/16 06:30:48;;;;;;;2.35;0.70;;;;;;;15.91;39.77;100335.70;1735704;81;21846;-74
2022/05/16 06:33:16;;;;;;;2.33;0.60;;;;;;;15.93;39.60;100331.91;1762477;80;21485;-71
2022/05/16 06:35:44;;;;;;;1.52;0.80;;;;;;;15.98;39.42;100318.93;1775932;79;21035;-71
2022/05/16 06:38:16;;;;;;;1.65;0.47;;;;;;;16.09;38.75;100322.31;1798950;78;21517;-71
2022/05/16 06:40:46;;;;;;;1.27;0.47;;;;;;;16.16;35.51;100320.70;1801793;79;21027;-72
2022/05/16 06:43:13;;;;;;;1.67;0.50;;;;;;;16.18;35.71;100320.87;1786424;79;21901;-73
2022/05/16 06:45:42;;;;;;;1.37;0.57;;;;;;;16.25;35.64;100319.74;1782093;79;21600;-75
2022/05/16 06:48:09;;;;;;;0.85;0.50;;;;;;;16.35;36.22;100314.28;1774434;79;20991;-75
2022/05/16 06:50:36;;;;;;;0.82;0.60;;;;;;;16.43;35.75;100309.83;1770264;79;20931;-71
2022/05/16 06:53:04;;;;;;;1.35;0.50;;;;;;;16.57;37.18;100322.52;1771683;79;21067;-69
2022/05/16 06:55:30;;;;;;;1.10;0.62;;;;;;;16.68;36.77;100318.75;1771288;79;21790;-72
2022/05/16 06:57:59;;;;;;;3.58;0.62;;;;;;;16.70;36.31;100318.62;1772792;79;21068;-69
2022/05/16 07:00:26;;;;;;;1.02;0.70;;;;;;;16.71;36.71;100316.28;1772024;79;21024;-70
2022/05/16 07:02:53;;;;;;;2.52;0.70;;;;;;;16.77;37.25;100311.61;1775224;79;21063;-70
2022/05/16 07:05:20;;;;;;;3.20;0.78;;;;;;;16.85;37.79;100312.47;1770585;79;21034;-70
2022/05/16 07:07:47;;;;;;;1.72;0.62;;;;;;;16.96;36.67;100316.65;1776879;79;22317;-71
2022/05/16 07:10:16;;;;;;;2.17;0.68;;;;;;;16.99;36.10;100312.34;1777168;79;21086;-72
2022/05/16 07:12:44;;;;;;;1.20;0.70;;;;;;;17.02;36.02;100316.00;1771403;79;22039;-73
2022/05/16 07:15:13;;;;;;;3.17;0.80;;;;;;;17.11;35.07;100315.52;1772986;79;21043;-72
2022/05/16 07:17:40;;;;;;;3.22;0.72;;;;;;;17.11;35.31;100310.18;1789964;79;21077;-72
2022/05/16 07:20:10;;;;;;;2.22;0.80;;;;;;;17.13;35.69;100308.17;1770943;79;21772;-72
2022/05/16 07:22:41;;;;;;;5.08;0.95;;;;;;;17.27;36.82;100311.50;1769650;79;21007;-75
2022/05/16 07:25:09;;;;;;;1.12;0.70;;;;;;;17.48;36.41;100306.19;1769741;81;21540;-75
2022/05/16 07:30:26;;;;;;;3.20;0.60;;;;;;;17.75;34.14;100308.50;1777497;79;21011;-71
2022/05/16 07:32:55;;;;;;;2.47;0.45;;;;;;;17.69;33.43;100315.84;1750125;82;22584;-72
2022/05/16 07:35:26;;;;;;;3.02;0.55;;;;;;;17.58;33.54;100309.02;1764029;80;21017;-72
2022/05/16 07:37:54;;;;;;;1.80;0.50;;;;;;;17.58;33.36;100313.02;1780550;79;21054;-72
2022/05/16 07:40:23;;;;;;;3.75;0.60;;;;;;;17.61;32.92;100318.52;1746962;82;21024;-71
2022/05/16 07:42:51;;;;;;;5.53;0.90;;;;;;;17.65;33.01;100315.33;1750132;80;21035;-72
2022/05/16 07:45:18;;;;;;;2.08;0.40;;;;;;;17.73;33.00;100303.33;1800227;77;21799;-74
2022/05/16 07:47:45;;;;;;;1.27;0.40;;;;;;;17.86;32.47;100304.16;1806277;78;21468;-76
2022/05/16 07:50:12;;;;;;;0.53;0.30;;;;;;;17.92;33.50;100312.81;1787526;77;21059;-73
2022/05/16 07:52:44;;;;;;;1.07;0.30;;;;;;;18.02;32.43;100311.28;1790780;79;21040;-74
2022/05/16 07:55:09;;;;;;;1.95;0.47;;;;;;;18.13;32.18;100309.57;1804834;79;20973;-74
2022/05/16 07:57:37;;;;;;;1.82;0.50;;;;;;;18.19;30.94;100308.06;1797606;77;22462;-75
2022/05/16 08:00:05;;;;;;;1.10;0.40;;;;;;;18.16;31.36;100306.58;1770020;77;21020;-78
2022/05/16 08:02:34;;;;;;;1.32;0.50;;;;;;;18.17;31.34;100314.09;1775379;79;21024;-76
2022/05/16 08:05:01;;;;;;;0.98;0.40;;;;;;;18.06;31.78;100303.77;1798098;79;21671;-77
2022/05/16 08:07:29;;;;;;;1.40;0.50;;;;;;;17.99;32.22;100307.63;1808094;79;20989;-76
2022/05/16 08:12:43;;;;;;;0.75;0.47;;;;;;;18.20;32.24;100300.37;1789160;77;21008;-76
2022/05/16 08:15:10;;;;;;;1.65;0.53;;;;;;;18.39;32.12;100304.47;1796172;79;21008;-77
2022/05/16 08:17:37;;;;;;;1.75;0.55;;;;;;;18.42;31.80;100298.26;1801489;79;21059;-78
2022/05/16 08:20:06;;;;;;;1.02;0.50;;;;;;;18.40;32.05;100303.45;1785457;77;21036;-77
2022/05/16 08:22:34;;;;;;;0.85;0.40;;;;;;;18.38;32.41;100302.80;1784509;79;22537;-78
2022/05/16 08:25:01;;;;;;;5.05;0.50;;;;;;;18.42;32.39;100300.93;1757809;80;20959;-78
2022/05/16 08:27:28;;;;;;;0.78;0.37;;;;;;;18.52;31.62;100292.19;1754864;78;20977;-77
2022/05/16 08:29:55;;;;;;;1.07;0.42;;;;;;;18.54;31.32;100288.03;1751684;80;21036;-74
2022/05/16 08:32:25;;;;;;;1.82;0.50;;;;;;;18.52;32.09;100293.52;1790810;77;21000;-73
2022/05/16 08:35:01;;;;;;;1.27;0.55;;;;;;;18.50;32.02;100293.38;1788270;79;21085;-73
2022/05/16 08:40:15;;;;;;;4.12;0.50;;;;;;;18.45;31.73;100291.75;1678049;83;21095;-75
2022/05/16 08:43:03;;;;;;;2.75;0.60;;;;;;;18.50;32.79;100286.70;1677254;83;21052;-75
2022/05/16 08:45:40;;;;;;;1.40;0.57;;;;;;;18.70;32.26;100282.59;1734460;79;21054;-74
2022/05/16 08:48:25;;;;;;;1.77;0.50;;;;;;;18.94;32.38;100283.46;1804932;79;22642;-75
2022/05/16 08:51:03;;;;;;;2.50;0.45;;;;;;;19.09;31.19;100277.64;1793941;78;21050;-73
2022/05/16 08:53:40;;;;;;;2.00;0.60;;;;;;;19.15;31.62;100272.92;1795194;79;21421;-73
2022/05/16 08:56:13;;;;;;;4.62;0.57;;;;;;;19.29;31.53;100272.62;1794869;79;20999;-74
2022/05/16 08:58:46;;;;;;;3.65;0.80;;;;;;;19.40;31.04;100248.11;1764155;79;21101;-75
2022/05/16 09:01:28;;;;;;;2.55;0.60;;;;;;;19.39;30.53;100271.36;1796596;79;21857;-76
2022/05/16 09:04:07;;;;;;;2.17;0.50;;;;;;;19.31;31.51;100278.66;1767185;80;21051;-75
2022/05/16 09:07:02;;;;;;;3.75;0.85;;;;;;;19.36;31.85;100277.59;1777898;79;21035;-75
2022/05/16 09:09:45;;;;;;;3.25;0.60;;;;;;;19.35;31.49;100272.75;1786913;79;28818;-74
2022/05/16 09:12:31;;;;;;;1.67;0.70;;;;;;;19.30;32.03;100264.44;1760182;79;21498;-74
2022/05/16 09:15:16;;;;;;;3.67;0.70;;;;;;;19.26;32.35;100268.98;1724155;80;22333;-74
2022/05/16 09:18:06;;;;;;;3.40;0.50;;;;;;;19.23;32.99;100268.02;1774090;80;21048;-77
2022/05/16 09:20:54;;;;;;;3.67;0.53;;;;;;;19.37;33.34;100268.54;1775301;79;21047;-75
2022/05/16 09:23:50;;;;;;;1.90;0.50;;;;;;;19.61;31.41;100258.15;1783749;77;21024;-75
2022/05/16 09:26:51;;;;;;;2.27;0.40;;;;;;;19.80;31.13;100247.39;1702130;80;21074;-75
2022/05/16 09:29:26;;;;;;;1.05;0.40;;;;;;;19.90;31.07;100248.78;1764703;79;22441;-75
2022/05/16 09:32:06;;;;;;;3.10;0.53;;;;;;;19.93;31.60;100257.78;1781342;79;21278;-76
2022/05/16 09:34:34;;;;;;;1.72;0.70;;;;;;;19.90;30.99;100260.84;1771197;79;21030;-75
2022/05/16 09:37:01;;;;;;;1.25;0.60;;;;;;;19.80;31.16;100245.55;1799523;78;22049;-75
2022/05/16 09:39:33;;;;;;;2.25;0.60;;;;;;;19.67;32.50;100263.58;1771358;79;21003;-75
2022/05/16 09:42:27;;;;;;;2.55;0.70;;;;;;;19.63;32.41;100250.24;1779727;80;21840;-75
2022/05/16 09:45:04;;;;;;;1.27;0.50;;;;;;;19.75;31.17;100254.63;1774492;79;21008;-75
2022/05/16 09:47:37;;;;;;;2.95;0.70;;;;;;;19.94;32.50;100246.03;1753604;80;20976;-72
2022/05/16 09:50:09;;;;;;;1.30;0.40;;;;;;;20.19;30.57;100241.22;1789115;78;21546;-73
2022/05/16 09:52:52;;;;;;;2.00;0.50;;;;;;;20.26;30.22;100237.25;1788962;77;21523;-71
2022/05/16 09:55:33;;;;;;;4.55;0.75;;;;;;;20.21;30.28;100233.81;1797489;77;21943;-72
2022/05/16 09:58:04;;;;;;;1.50;0.70;;;;;;;20.15;30.62;100231.04;1792475;79;21058;-72
2022/05/16 10:00:42;;;;;;;3.98;0.68;;;;;;;20.03;30.60;100241.41;1779680;79;21067;-73
2022/05/16 10:03:23;;;;;;;1.27;0.80;;;;;;;19.92;30.73;100238.70;1790772;79;21074;-74
2022/05/16 10:05:51;;;;;;;3.98;0.60;;;;;;;19.74;30.46;100228.86;1792843;77;21075;-73
2022/05/16 10:08:42;;;;;;;0.60;0.45;;;;;;;19.61;31.27;100234.86;1804039;79;21921;-74
2022/05/16 10:11:25;;;;;;;1.12;0.60;;;;;;;19.61;31.60;100222.81;1797271;79;21037;-76
2022/05/16 10:13:54;;;;;;;3.12;0.70;;;;;;;19.81;31.71;100211.53;1785620;79;21552;-71
2022/05/16 10:16:21;;;;;;;4.62;0.70;;;;;;;20.18;32.82;100207.38;1746764;79;21042;-76
2022/05/16 10:18:52;;;;;;;1.85;0.60;;;;;;;20.65;31.82;100203.36;1795693;79;21034;-74
2022/05/16 10:21:35;;;;;;;3.60;0.60;;;;;;;21.02;30.05;100202.26;1793746;79;22603;-74
2022/05/16 10:24:04;;;;;;;1.65;0.60;;;;;;;21.12;30.14;100200.58;1758548;79;20994;-79
2022/05/16 10:26:37;;;;;;;4.17;0.80;;;;;;;21.17;29.99;100195.98;1804957;79;20976;-78
2022/05/16 10:29:13;;;;;;;1.90;0.60;;;;;;;21.06;29.83;100210.27;1783468;79;22211;-75
2022/05/16 10:34:48;;;;;;;6.10;0.80;;;;;;;20.89;30.61;100190.59;1803215;78;22217;-77
2022/05/16 10:37:15;;;;;;;8.58;1.00;;;;;;;20.80;30.52;100197.42;1792056;79;20991;-78
2022/05/16 10:39:52;;;;;;;1.50;0.70;;;;;;;20.70;30.53;100198.27;1805056;77;21507;-77
2022/05/16 10:42:29;;;;;;;2.22;0.80;;;;;;;20.74;31.01;100198.19;1800486;79;21000;-77
2022/05/16 10:45:09;;;;;;;2.67;0.60;;;;;;;20.95;30.77;100187.97;1811226;77;21022;-75
2022/05/16 10:47:58;;;;;;;3.10;0.90;;;;;;;21.11;30.55;100179.61;1784843;79;21909;-77
2022/05/16 10:50:31;;;;;;;2.35;0.50;;;;;;;21.10;30.86;100179.30;1790635;79;20999;-76
2022/05/16 10:53:06;;;;;;;7.05;0.93;;;;;;;21.06;29.69;100194.66;1804061;78;21003;-77
2022/05/16 10:56:05;;;;;;;5.87;1.12;;;;;;;20.90;29.81;100191.73;1783105;79;21116;-78
2022/05/16 10:58:50;;;;;;;1.70;1.00;;;;;;;20.95;30.51;100183.11;1786296;79;21018;-79
2022/05/16 11:01:24;;;;;;;2.92;0.80;;;;;;;21.38;31.25;100177.98;1792571;79;21728;-78
2022/05/16 11:04:23;;;;;;;2.45;1.17;;;;;;;21.92;29.44;100165.67;1784919;79;21541;-76
2022/05/16 11:07:17;;;;;;;1.60;0.60;;;;;;;22.35;28.85;100157.34;1782508;79;21085;-75
2022/05/16 11:09:53;;;;;;;2.12;0.90;;;;;;;22.50;27.73;100173.64;1795734;77;21026;-78
2022/05/16 11:12:43;;;;;;;3.25;0.85;;;;;;;22.20;28.16;100151.63;1782273;79;21069;-75
2022/05/16 11:15:34;;;;;;;1.77;0.72;;;;;;;21.94;28.44;100161.74;1787653;79;21887;-75
2022/05/16 11:18:29;;;;;;;2.15;0.78;;;;;;;21.68;27.78;100161.61;1791017;79;21086;-74
2022/05/16 11:21:33;;;;;;;3.40;0.50;;;;;;;21.51;27.82;100154.38;1784298;79;21019;-77
2022/05/16 11:24:26;;;;;;;3.15;0.60;;;;;;;21.61;27.70;100152.16;1796150;79;21002;-76
2022/05/16 11:27:14;;;;;;;0.72;0.50;;;;;;;21.75;27.44;100156.28;1790505;79;21082;-75
2022/05/16 11:30:22;;;;;;;1.22;0.47;;;;;;;21.65;27.02;100155.30;1782359;79;22571;-75
2022/05/16 11:33:10;;;;;;;2.47;0.50;;;;;;;21.33;27.09;100152.23;1795748;79;20979;-73
2022/05/16 11:35:45;;;;;;;2.77;0.40;;;;;;;21.00;27.98;100161.35;1800649;79;21023;-75
2022/05/16 11:38:40;;;;;;;0.90;0.50;;;;;;;20.92;27.21;100161.48;1799179;79;21402;-74
2022/05/16 11:41:36;;;;;;;2.05;0.35;;;;;;;21.00;27.27;100149.78;1795506;79;21019;-75
2022/05/16 11:44:28;;;;;;;2.10;0.50;;;;;;;21.12;27.29;100145.53;1745885;79;22351;-74
2022/05/16 11:47:23;;;;;;;1.45;0.47;;;;;;;21.27;27.57;100154.36;1790405;79;22219;-73
2022/05/16 11:50:08;;;;;;;0.60;0.40;;;;;;;21.43;26.69;100151.37;1795368;77;21045;-72
2022/05/16 11:53:11;;;;;;;0.80;0.40;;;;;;;21.40;25.92;100145.54;1796026;77;21022;-73
2022/05/16 12:01:34;;;;;;;1.75;0.50;;;;;;;21.03;26.31;100142.67;1781482;79;21051;-73
2022/05/16 12:04:24;;;;;;;3.60;0.57;;;;;;;20.91;27.06;100141.03;1782860;79;21027;-73
2022/05/16 12:07:00;;;;;;;1.87;0.70;;;;;;;20.89;27.44;100145.78;1782653;79;21449;-77
2022/05/16 12:09:32;;;;;;;2.75;0.50;;;;;;;20.93;27.75;100138.98;1772535;79;20997;-75
2022/05/16 12:12:07;;;;;;;1.00;0.47;;;;;;;20.90;27.47;100135.35;1764190;79;20988;-75
2022/05/16 12:14:38;;;;;;;4.12;0.60;;;;;;;20.90;27.17;100134.52;1779910;79;21076;-75
2022/05/16 12:17:19;;;;;;;2.15;0.60;;;;;;;20.88;27.72;100136.06;1776320;79;21015;-75
2022/05/16 12:19:52;;;;;;;3.62;0.50;;;;;;;21.04;28.30;100138.98;1763332;79;22060;-76